Airfield :







YOU CAN JOIN US ON...

 
LOGIN :

Register | Disclaimer

   EN    FR    IT 

 









Legend :    VFR   Marginal VFR   IFR   Intensive IFR   Very Intensive IFR
Visi :
Ceiling :
>= 8 km
>= 3000ft
5 to 8 km
1000 to 3000 ft
1500m to 5 km
500 to 1000 ft
800 to 1500m
200 to 500 ft
< 800m
< 200 ft
Symbols :   Thunderstorms  Fog  Heavy snow  Heavy precipitations  Wind > 20 kt






- Airport Elevation : 244 ft


KSFM - Sanford Regional

CURRENT METAR :
  • 051856Z AUTO 28007KT 10SM BKN050 05/M02 A2958 RMK AO2 SLP023 T00501022

EXPIRED METARs :
  • 051756Z AUTO 28012G19KT 05/M03 A2955 RMK AO2 SLP014 6//// T00501028 10050 21111 53002
  • 051656Z AUTO 27010G19KT 10SM 04/M02 A2955 RMK AO2 SLP012 T00441017 $

TAF N/A



MET'MAP, your aeronautical weather chart ! - Copyright ORBIFLY December 2007 - Disclaimer

ORBIFLY MET'MAP TEAM :

Programming & Development : Alexandra Zaïnal
Concept & original design : Baudouin d'Aumeries
Assistance for programming : Marc-Olivier Méhu
Technical & hardware support : Manuel Goepfert

Contact : metmap@orbifly.com




SOURCES & CREDITS :

   NOAA